Terminal Aerodrome Forecast
Issued by NWS Cleveland, OH

Home | Current Version | Previous Version | Text Only | Print | Product List | Glossary Off
Versions: 1 2 3 4 5 6 7 8 9 10 11 12 13 14 15 16 17 18 19 20

000
FTUS41 KCLE 241300 AAA
TAFMFD
TAF AMD
KMFD 241350Z 2414/2512 20020G35KT P6SM VCSH SCT015 OVC025
      TEMPO 2416/2418 VRB30G45KT 5SM -TSRA BR OVC025CB
     FM241800 23025G35KT P6SM OVC030
      TEMPO 2418/2421 23030G45KT
     FM250000 23020G32KT P6SM OVC025
     FM250700 24015G25KT P6SM OVC035=

USA.gov is the U.S. government's official web portal to all federal, state and local government web resources and services.